Time,TemperatureF,DewpointF,PressureIn,WindDirection,WindDirectionDegrees,WindSpeedMPH,WindSpeedGustMPH,Humidity,HourlyPrecipIn,Conditions,Clouds,dailyrainin,SoftwareType,DateUTC
2013-06-29 00:07:00,72.4,60.0,29.67,WNW,301,2.0,5.0,65,0.00,,,0.00,weatherlink.com 1.10,2013-06-29 05:07:00,
2013-06-29 00:22:00,72.0,60.0,29.66,West,274,3.0,4.0,66,0.00,,,0.00,weatherlink.com 1.10,2013-06-29 05:22:00,
2013-06-29 00:37:00,71.5,60.0,29.66,WNW,288,1.0,5.0,68,0.00,,,0.00,weatherlink.com 1.10,2013-06-29 05:37:00,
2013-06-29 00:52:00,71.5,60.0,29.66,NW,304,1.0,5.0,68,0.00,,,0.00,weatherlink.com 1.10,2013-06-29 05:52:00,
2013-06-29 01:07:00,71.6,60.0,29.66,West,280,3.0,7.0,66,0.00,,,0.00,weatherlink.com 1.10,2013-06-29 06:07:00,
2013-06-29 01:22:00,71.8,60.0,29.66,NNW,331,3.0,6.0,66,0.00,,,0.00,weatherlink.com 1.10,2013-06-29 06:22:00,
2013-06-29 01:37:00,71.6,60.0,29.66,West,274,2.0,6.0,68,0.00,,,0.00,weatherlink.com 1.10,2013-06-29 06:37:00,
2013-06-29 01:58:00,71.6,60.0,29.66,NW,311,2.0,8.0,68,0.00,,,0.00,weatherlink.com 1.10,2013-06-29 06:58:00,
2013-06-29 02:07:00,71.4,60.0,29.66,NW,307,2.0,6.0,68,0.00,,,0.00,weatherlink.com 1.10,2013-06-29 07:07:00,
2013-06-29 02:22:00,70.7,60.0,29.66,WNW,292,3.0,4.0,70,0.00,,,0.00,weatherlink.com 1.10,2013-06-29 07:22:00,
2013-06-29 02:37:00,70.8,60.0,29.66,WNW,285,2.0,8.0,69,0.00,,,0.00,weatherlink.com 1.10,2013-06-29 07:37:00,
2013-06-29 02:52:00,69.6,60.0,29.66,WNW,291,3.0,3.0,72,0.00,,,0.00,weatherlink.com 1.10,2013-06-29 07:52:00,
2013-06-29 03:07:00,69.3,60.0,29.66,WNW,283,1.0,4.0,73,0.00,,,0.00,weatherlink.com 1.10,2013-06-29 08:07:00,
2013-06-29 03:22:00,68.5,60.0,29.66,West,274,1.0,3.0,75,0.00,,,0.00,weatherlink.com 1.10,2013-06-29 08:22:00,
2013-06-29 03:37:00,68.2,60.0,29.66,WNW,288,2.0,4.0,75,0.00,,,0.00,weatherlink.com 1.10,2013-06-29 08:37:00,
2013-06-29 03:53:00,68.1,60.0,29.66,WNW,298,2.0,5.0,75,0.00,,,0.00,weatherlink.com 1.10,2013-06-29 08:53:00,
2013-06-29 04:08:00,67.4,60.0,29.67,West,271,1.0,3.0,78,0.00,,,0.00,weatherlink.com 1.10,2013-06-29 09:08:00,
2013-06-29 04:23:00,66.0,60.0,29.67,WNW,300,2.0,3.0,81,0.00,,,0.00,weatherlink.com 1.10,2013-06-29 09:23:00,
2013-06-29 04:38:00,65.4,60.0,29.66,West,269,2.0,4.0,82,0.00,,,0.00,weatherlink.com 1.10,2013-06-29 09:38:00,
2013-06-29 04:53:00,65.6,60.0,29.66,WNW,297,2.0,4.0,82,0.00,,,0.00,weatherlink.com 1.10,2013-06-29 09:53:00,
2013-06-29 05:08:00,65.5,60.0,29.66,WNW,300,2.0,5.0,82,0.00,,,0.00,weatherlink.com 1.10,2013-06-29 10:08:00,
2013-06-29 05:23:00,65.4,60.0,29.66,WNW,298,1.0,5.0,82,0.00,,,0.00,weatherlink.com 1.10,2013-06-29 10:23:00,
2013-06-29 05:38:00,65.2,60.0,29.67,WNW,296,4.0,6.0,83,0.00,,,0.00,weatherlink.com 1.10,2013-06-29 10:38:00,
2013-06-29 05:53:00,65.5,60.0,29.67,WNW,295,4.0,7.0,82,0.00,,,0.00,weatherlink.com 1.10,2013-06-29 10:53:00,
2013-06-29 06:08:00,65.8,60.0,29.67,West,276,7.0,7.0,82,0.00,,,0.00,weatherlink.com 1.10,2013-06-29 11:08:00,
2013-06-29 06:23:00,66.0,60.0,29.67,WNW,293,5.0,6.0,81,0.00,,,0.00,weatherlink.com 1.10,2013-06-29 11:23:00,
2013-06-29 06:38:00,66.2,61.0,29.67,West,269,3.0,6.0,82,0.00,,,0.00,weatherlink.com 1.10,2013-06-29 11:38:00,
2013-06-29 06:53:00,66.6,61.0,29.66,WNW,288,4.0,6.0,81,0.00,,,0.00,weatherlink.com 1.10,2013-06-29 11:53:00,
2013-06-29 07:08:00,67.3,61.0,29.66,WNW,289,3.0,9.0,80,0.00,,,0.00,weatherlink.com 1.10,2013-06-29 12:08:00,
2013-06-29 07:23:00,68.0,61.0,29.66,NW,305,6.0,10.0,79,0.00,,,0.00,weatherlink.com 1.10,2013-06-29 12:23:00,
2013-06-29 07:38:00,68.8,62.0,29.66,WSW,251,4.0,10.0,78,0.00,,,0.00,weatherlink.com 1.10,2013-06-29 12:38:00,
2013-06-29 07:53:00,69.7,62.0,29.66,NW,323,2.0,10.0,77,0.00,,,0.00,weatherlink.com 1.10,2013-06-29 12:53:00,
2013-06-29 08:08:00,70.3,62.0,29.66,NE,37,8.0,12.0,75,0.00,,,0.00,weatherlink.com 1.10,2013-06-29 13:08:00,
2013-06-29 08:23:00,70.6,62.0,29.66,NW,311,4.0,11.0,74,0.00,,,0.00,weatherlink.com 1.10,2013-06-29 13:23:00,
2013-06-29 08:38:00,70.7,62.0,29.66,West,264,6.0,16.0,73,0.00,,,0.00,weatherlink.com 1.10,2013-06-29 13:38:00,
2013-06-29 08:53:00,70.9,62.0,29.66,NW,318,5.0,18.0,73,0.00,,,0.00,weatherlink.com 1.10,2013-06-29 13:53:00,
2013-06-29 09:08:00,71.1,62.0,29.66,North,1,11.0,16.0,74,0.00,,,0.00,weatherlink.com 1.10,2013-06-29 14:08:00,
2013-06-29 09:23:00,71.3,63.0,29.66,North,355,10.0,14.0,74,0.00,,,0.00,weatherlink.com 1.10,2013-06-29 14:23:00,
2013-06-29 09:38:00,71.6,63.0,29.65,NW,307,5.0,14.0,74,0.00,,,0.00,weatherlink.com 1.10,2013-06-29 14:38:00,
2013-06-29 09:53:00,72.3,64.0,29.65,WNW,284,4.0,14.0,74,0.00,,,0.00,weatherlink.com 1.10,2013-06-29 14:53:00,
2013-06-29 10:08:00,72.8,64.0,29.65,West,281,7.0,14.0,73,0.00,,,0.00,weatherlink.com 1.10,2013-06-29 15:08:00,
2013-06-29 10:23:00,72.9,64.0,29.65,WNW,297,7.0,13.0,73,0.00,,,0.00,weatherlink.com 1.10,2013-06-29 15:23:00,
2013-06-29 10:38:00,73.2,64.0,29.65,WNW,285,3.0,12.0,74,0.00,,,0.00,weatherlink.com 1.10,2013-06-29 15:38:00,
2013-06-29 10:53:00,73.7,64.0,29.65,NW,312,8.0,12.0,72,0.00,,,0.00,weatherlink.com 1.10,2013-06-29 15:53:00,
2013-06-29 11:08:00,74.2,65.0,29.65,WNW,293,5.0,13.0,74,0.00,,,0.00,weatherlink.com 1.10,2013-06-29 16:08:00,
2013-06-29 11:23:00,74.3,63.0,29.65,WNW,282,10.0,16.0,69,0.00,,,0.00,weatherlink.com 1.10,2013-06-29 16:23:00,
2013-06-29 11:38:00,75.0,64.0,29.66,NW,304,6.0,11.0,69,0.00,,,0.00,weatherlink.com 1.10,2013-06-29 16:38:00,
2013-06-29 11:53:00,74.4,64.0,29.65,WNW,297,8.0,15.0,69,0.00,,,0.00,weatherlink.com 1.10,2013-06-29 16:53:00,
2013-06-29 12:08:00,75.0,64.0,29.66,NW,324,4.0,13.0,69,0.00,,,0.00,weatherlink.com 1.10,2013-06-29 17:08:00,
2013-06-29 12:23:00,75.5,64.0,29.65,West,276,5.0,13.0,68,0.00,,,0.00,weatherlink.com 1.10,2013-06-29 17:23:00,
2013-06-29 12:38:00,75.5,65.0,29.65,WSW,255,9.0,14.0,69,0.00,,,0.00,weatherlink.com 1.10,2013-06-29 17:38:00,
2013-06-29 12:53:00,75.1,63.0,29.64,NW,307,4.0,15.0,66,0.00,,,0.00,weatherlink.com 1.10,2013-06-29 17:53:00,
2013-06-29 13:09:00,75.0,64.0,29.64,West,277,6.0,13.0,68,0.00,,,0.00,weatherlink.com 1.10,2013-06-29 18:09:00,
2013-06-29 13:23:00,74.4,64.0,29.64,NW,319,4.0,11.0,69,0.00,,,0.00,weatherlink.com 1.10,2013-06-29 18:23:00,
2013-06-29 13:38:00,76.1,63.0,29.64,NW,304,6.0,14.0,65,0.00,,,0.00,weatherlink.com 1.10,2013-06-29 18:38:00,
2013-06-29 13:53:00,75.1,63.0,29.63,WNW,293,6.0,10.0,67,0.00,,,0.00,weatherlink.com 1.10,2013-06-29 18:53:00,
2013-06-29 14:08:00,76.0,63.0,29.63,WNW,300,13.0,17.0,64,0.00,,,0.00,weatherlink.com 1.10,2013-06-29 19:08:00,
2013-06-29 14:23:00,76.3,64.0,29.63,NW,326,4.0,15.0,66,0.00,,,0.00,weatherlink.com 1.10,2013-06-29 19:23:00,
2013-06-29 14:38:00,77.0,65.0,29.62,NNW,342,4.0,13.0,67,0.00,,,0.00,weatherlink.com 1.10,2013-06-29 19:38:00,
2013-06-29 14:53:00,76.6,66.0,29.62,West,273,3.0,14.0,69,0.00,,,0.00,weatherlink.com 1.10,2013-06-29 19:53:00,
2013-06-29 15:08:00,75.9,65.0,29.63,WNW,290,2.0,12.0,70,0.00,,,0.00,weatherlink.com 1.10,2013-06-29 20:08:00,
2013-06-29 15:24:00,74.0,64.0,29.63,WNW,300,5.0,11.0,71,0.00,,,0.00,weatherlink.com 1.10,2013-06-29 20:24:00,
2013-06-29 15:39:00,72.6,63.0,29.64,NW,311,5.0,11.0,73,0.00,,,0.00,weatherlink.com 1.10,2013-06-29 20:39:00,
2013-06-29 15:54:00,72.0,63.0,29.64,WSW,240,9.0,12.0,74,0.00,,,0.00,weatherlink.com 1.10,2013-06-29 20:54:00,
2013-06-29 16:09:00,73.6,66.0,29.64,West,275,1.0,11.0,76,0.00,,,0.00,weatherlink.com 1.10,2013-06-29 21:09:00,
2013-06-29 18:09:00,65.6,63.0,29.65,NW,313,4.0,6.0,91,0.00,,,0.24,weatherlink.com 1.10,2013-06-29 23:09:00,
2013-06-29 18:39:00,65.7,62.0,29.66,NW,321,3.0,8.0,89,0.00,,,0.24,weatherlink.com 1.10,2013-06-29 23:39:00,
2013-06-29 18:53:00,65.7,63.0,29.67,NW,307,2.0,3.0,90,0.00,,,0.24,weatherlink.com 1.10,2013-06-29 23:53:00,
2013-06-29 19:08:00,65.7,63.0,29.67,NW,311,3.0,5.0,90,0.00,,,0.24,weatherlink.com 1.10,2013-06-30 00:08:00,
2013-06-29 19:24:00,65.6,63.0,29.66,NW,305,2.0,6.0,92,0.00,,,0.24,weatherlink.com 1.10,2013-06-30 00:24:00,
2013-06-29 19:39:00,65.5,63.0,29.67,NW,304,2.0,4.0,92,0.00,,,0.24,weatherlink.com 1.10,2013-06-30 00:39:00,
2013-06-29 19:54:00,65.5,63.0,29.67,WNW,301,2.0,5.0,92,0.00,,,0.24,weatherlink.com 1.10,2013-06-30 00:54:00,
2013-06-29 20:09:00,65.3,63.0,29.67,NW,308,3.0,4.0,93,0.00,,,0.24,weatherlink.com 1.10,2013-06-30 01:09:00,
2013-06-29 20:24:00,65.4,63.0,29.68,WNW,284,1.0,3.0,93,0.00,,,0.24,weatherlink.com 1.10,2013-06-30 01:24:00,
2013-06-29 20:39:00,65.1,63.0,29.69,NE,46,3.0,7.0,92,0.00,,,0.24,weatherlink.com 1.10,2013-06-30 01:39:00,
2013-06-29 20:54:00,64.9,62.0,29.69,WSW,250,1.0,6.0,90,0.00,,,0.24,weatherlink.com 1.10,2013-06-30 01:54:00,
2013-06-29 21:11:00,64.3,62.0,29.69,WNW,302,2.0,6.0,91,0.00,,,0.24,weatherlink.com 1.10,2013-06-30 02:11:00,
2013-06-29 21:24:00,64.1,62.0,29.70,WSW,250,1.0,4.0,92,0.00,,,0.24,weatherlink.com 1.10,2013-06-30 02:24:00,
2013-06-29 21:39:00,63.9,62.0,29.70,WNW,301,4.0,5.0,92,0.00,,,0.24,weatherlink.com 1.10,2013-06-30 02:39:00,
2013-06-29 21:57:00,64.0,62.0,29.71,West,277,2.0,5.0,92,0.00,,,0.24,weatherlink.com 1.10,2013-06-30 02:57:00,
2013-06-29 22:09:00,64.3,62.0,29.71,North,360,4.0,8.0,92,0.00,,,0.24,weatherlink.com 1.10,2013-06-30 03:09:00,
2013-06-29 22:24:00,64.6,62.0,29.71,North,11,2.0,8.0,92,0.00,,,0.24,weatherlink.com 1.10,2013-06-30 03:24:00,
2013-06-29 22:39:00,64.6,62.0,29.72,ENE,78,8.0,8.0,92,0.00,,,0.24,weatherlink.com 1.10,2013-06-30 03:39:00,
2013-06-29 22:54:00,64.6,62.0,29.72,ENE,64,1.0,6.0,92,0.00,,,0.24,weatherlink.com 1.10,2013-06-30 03:54:00,
2013-06-29 23:09:00,64.3,62.0,29.72,NNE,22,3.0,3.0,93,0.00,,,0.24,weatherlink.com 1.10,2013-06-30 04:09:00,
2013-06-29 23:24:00,64.2,62.0,29.72,North,349,0.0,2.0,93,0.00,,,0.24,weatherlink.com 1.10,2013-06-30 04:24:00,
2013-06-29 23:39:00,64.3,62.0,29.73,NNW,347,1.0,3.0,93,0.00,,,0.24,weatherlink.com 1.10,2013-06-30 04:39:00,
2013-06-29 23:54:00,64.5,63.0,29.72,ENE,75,3.0,7.0,93,0.00,,,0.24,weatherlink.com 1.10,2013-06-30 04:54:00,